Time;durP1;ratioP1;P1;durP2;ratioP2;P2;SDS_P1;SDS_P2;PMS_P1;PMS_P2;Temp;Humidity;BMP_temperature;BMP_pressure;BME280_temperature;BME280_humidity;BME280_pressure;Samples;Min_cycle;Max_cycle;Signal;HPM_P1;HPM_P2
2022/04/20 00:02:24;;;;;;;19.42;14.45;;;14.50;99.90;;;14.94;58.95;101466.91;5073130;28;20083;-69
2022/04/20 00:04:55;;;;;;;20.88;14.82;;;14.60;99.90;;;14.90;58.87;101470.53;5073204;28;20053;-69
2022/04/20 00:07:24;;;;;;;;;;;14.60;99.90;;;14.96;58.67;101464.25;5073620;28;20040;-71
2022/04/20 00:09:53;;;;;;;22.90;14.88;;;14.60;99.90;;;14.94;58.62;101466.91;5073061;28;19928;-69
2022/04/20 00:12:21;;;;;;;22.95;14.90;;;14.60;99.90;;;14.86;59.00;101466.13;5073152;28;20500;-69
2022/04/20 00:14:49;;;;;;;22.63;15.30;;;14.60;99.90;;;14.76;58.73;101437.84;5072969;28;20064;-69
2022/04/20 00:17:18;;;;;;;22.13;15.55;;;14.60;99.90;;;14.88;59.04;101464.34;5073293;28;20102;-69
2022/04/20 00:19:47;;;;;;;21.55;14.43;;;14.50;99.90;;;14.82;58.86;101463.53;5073204;28;20057;-69
2022/04/20 00:22:15;;;;;;;19.20;14.98;;;14.50;99.90;;;14.74;58.74;101473.38;5073180;28;20072;-70
2022/04/20 00:24:45;;;;;;;19.15;14.23;;;14.40;99.90;;;14.80;59.19;101466.22;5072739;28;20440;-69
2022/04/20 00:27:13;;;;;;;21.55;14.02;;;14.40;99.90;;;14.63;59.10;101420.28;5072724;28;20041;-69
2022/04/20 00:29:41;;;;;;;19.58;14.15;;;14.50;99.90;;;14.54;59.14;101443.47;5072819;28;20498;-69
2022/04/20 00:32:10;;;;;;;19.95;14.68;;;14.30;99.90;;;14.46;59.58;101468.38;5073137;28;20052;-69
2022/04/20 00:34:38;;;;;;;19.90;14.65;;;14.20;99.90;;;14.57;59.51;101476.25;5073088;28;20118;-69
2022/04/20 00:37:07;;;;;;;20.17;14.48;;;14.20;99.90;;;14.48;59.45;101471.88;5055063;28;20045;-69
2022/04/20 00:39:37;;;;;;;18.77;14.07;;;14.20;99.90;;;14.25;59.78;101441.94;5072812;28;20533;-69
2022/04/20 00:42:08;;;;;;;21.75;15.10;;;14.10;99.90;;;14.37;59.85;101470.25;5073089;28;20045;-69
2022/04/20 00:44:36;;;;;;;18.38;13.75;;;14.10;99.90;;;14.32;60.26;101478.25;5072843;28;20063;-69
2022/04/20 00:47:06;;;;;;;20.55;13.98;;;14.00;99.90;;;13.24;60.12;101306.44;5072885;28;20127;-69
2022/04/20 00:49:36;;;;;;;23.90;15.10;;;14.00;99.90;;;13.99;60.71;101462.59;5055050;28;20053;-69
2022/04/20 00:52:07;;;;;;;20.38;15.00;;;13.80;99.90;;;14.20;60.80;101477.47;5072929;28;20040;-69
2022/04/20 00:54:36;;;;;;;22.48;14.57;;;13.90;99.90;;;14.21;60.42;101481.88;5054917;28;20048;-69
2022/04/20 00:57:07;;;;;;;22.55;14.35;;;13.90;99.90;;;14.16;60.38;101484.63;5072859;28;20048;-69
2022/04/20 00:59:38;;;;;;;20.67;14.43;;;13.90;99.90;;;13.97;60.68;101475.03;5071685;28;20059;-69
2022/04/20 01:02:06;;;;;;;21.58;14.10;;;13.80;99.90;;;13.98;60.92;101452.84;5055848;28;20088;-70
2022/04/20 01:04:35;;;;;;;22.23;13.95;;;13.80;99.90;;;14.02;60.87;101482.97;5075303;28;20566;-70
2022/04/20 01:07:13;;;;;;;19.08;13.50;;;13.70;99.90;;;14.10;60.32;101483.78;5076674;28;20052;-70
2022/04/20 01:10:10;;;;;;;20.35;13.95;;;13.80;99.90;;;14.14;60.82;101477.53;5075326;28;20053;-69
2022/04/20 01:12:50;;;;;;;18.02;13.90;;;13.80;99.90;;;13.82;60.80;101476.94;5058516;28;20144;-69
2022/04/20 01:15:41;;;;;;;20.75;14.40;;;13.60;99.90;;;13.91;61.06;101493.69;5075912;28;20079;-69
2022/04/20 01:18:44;;;;;;;18.95;13.63;;;13.50;99.90;;;13.85;61.42;101487.53;5020780;28;20057;-70
2022/04/20 01:21:43;;;;;;;19.00;13.57;;;13.50;99.90;;;13.77;60.95;101458.34;5058326;28;20056;-70
2022/04/20 01:24:40;;;;;;;17.80;13.32;;;13.50;99.90;;;14.01;60.69;101481.22;5057991;28;20167;-69
2022/04/20 01:27:42;;;;;;;18.55;13.60;;;13.60;99.90;;;13.97;60.54;101475.03;5020665;28;20079;-69
2022/04/20 01:30:36;;;;;;;18.55;13.02;;;13.70;99.90;;;13.77;60.49;101452.13;5058150;28;20135;-69
2022/04/20 01:33:26;;;;;;;16.67;12.38;;;13.60;99.90;;;13.91;60.76;101466.22;5058127;28;20074;-69
2022/04/20 01:35:54;;;;;;;18.08;12.85;;;13.60;99.90;;;13.84;60.32;101468.03;5075995;28;20045;-69
2022/04/20 01:38:24;;;;;;;16.58;12.90;;;13.50;99.90;;;13.83;60.60;101471.59;5075681;28;20770;-69
2022/04/20 01:40:53;;;;;;;16.83;12.88;;;13.50;99.90;;;13.82;60.77;101464.50;5058068;28;20051;-69
2022/04/20 01:43:21;;;;;;;18.95;12.80;;;13.50;99.90;;;13.84;60.66;101473.34;5057983;28;20095;-69
2022/04/20 01:46:15;;;;;;;17.42;13.43;;;13.50;99.90;;;13.78;60.37;101468.06;5050027;28;20102;-69
2022/04/20 01:49:06;;;;;;;18.52;12.27;;;13.50;99.90;;;13.81;60.51;101468.06;5054669;28;20136;-69
2022/04/20 01:51:54;;;;;;;18.75;13.00;;;13.50;99.90;;;13.66;60.41;101440.72;5055602;28;20331;-69
2022/04/20 01:54:33;;;;;;;16.23;12.60;;;13.50;99.90;;;13.64;60.56;101471.75;5055762;28;20398;-69
2022/04/20 01:57:17;;;;;;;17.77;13.25;;;13.40;99.90;;;13.62;60.76;101470.88;5054406;28;20055;-69
2022/04/20 02:00:12;;;;;;;17.13;13.27;;;13.40;99.90;;;13.46;60.91;101468.34;5054350;28;20106;-69
2022/04/20 02:03:19;;;;;;;18.90;13.52;;;13.30;99.90;;;13.33;61.32;101442.72;5055226;28;20048;-69
2022/04/20 02:06:14;;;;;;;19.08;12.40;;;13.20;99.90;;;13.41;61.24;101459.50;5054927;28;20453;-69
2022/04/20 02:09:00;;;;;;;16.15;12.68;;;13.20;99.90;;;13.43;61.14;101484.28;5053952;28;20056;-69
2022/04/20 02:11:41;;;;;;;18.20;12.55;;;13.10;99.90;;;13.32;61.23;101445.38;5054174;28;20049;-70
2022/04/20 02:14:21;;;;;;;16.27;13.52;;;13.10;99.90;;;13.50;61.27;101470.06;5054390;28;20056;-70
2022/04/20 02:16:57;;;;;;;16.55;13.00;;;13.20;99.90;;;13.24;61.81;101469.34;5054142;28;20410;-69
2022/04/20 02:19:33;;;;;;;20.10;14.05;;;12.90;99.90;;;13.22;61.77;101456.97;5054016;28;20518;-69
2022/04/20 02:22:15;;;;;;;20.45;13.02;;;13.00;99.90;;;13.27;61.61;101464.03;5053996;28;20422;-69
2022/04/20 02:24:43;;;;;;;21.40;13.05;;;13.00;99.90;;;13.17;61.73;101443.72;5053925;28;20045;-69
2022/04/20 02:27:14;;;;;;;15.55;12.68;;;13.00;99.90;;;13.38;61.30;101458.63;5053864;28;20044;-69
2022/04/20 02:29:42;;;;;;;18.40;12.45;;;13.00;99.90;;;13.23;61.18;101441.03;5053620;28;20084;-69
2022/04/20 02:32:10;;;;;;;15.65;12.80;;;13.00;99.90;;;13.38;61.07;101462.19;5055091;28;20057;-68
2022/04/20 02:34:39;;;;;;;16.83;13.02;;;13.10;99.90;;;13.40;60.99;101463.06;5053635;28;20549;-68
2022/04/20 02:37:07;;;;;;;15.75;12.02;;;13.00;99.90;;;13.41;60.90;101464.81;5070526;28;20082;-68
2022/04/20 02:39:36;;;;;;;15.45;12.60;;;13.10;99.90;;;13.41;60.79;101466.59;5054546;28;20384;-68
2022/04/20 02:42:08;;;;;;;15.75;12.32;;;13.10;99.90;;;13.37;60.78;101463.09;5053804;28;20076;-68
2022/04/20 02:44:38;;;;;;;;;;;13.10;99.90;;;13.22;60.61;101436.59;5056636;28;20056;-68
2022/04/20 02:47:08;;;;;;;14.05;12.25;;;13.10;99.90;;;13.32;60.48;101459.56;5073529;28;19938;-68
2022/04/20 02:49:36;;;;;;;17.20;12.80;;;13.00;99.90;;;13.32;60.54;101466.63;5056806;28;20098;-68
2022/04/20 02:52:08;;;;;;;14.43;12.27;;;13.00;99.90;;;13.29;60.43;101470.22;5056939;28;20079;-69
2022/04/20 02:54:37;;;;;;;16.08;12.02;;;13.00;99.90;;;13.27;60.23;101476.41;5073316;28;20068;-68
2022/04/20 02:57:07;;;;;;;15.00;11.75;;;13.00;99.90;;;13.30;60.43;101465.75;5056561;28;20082;-68
2022/04/20 02:59:36;;;;;;;15.48;12.23;;;13.00;99.90;;;13.08;60.13;101480.06;5056474;28;20413;-68
2022/04/20 03:02:06;;;;;;;18.10;12.43;;;12.80;99.90;;;13.17;60.46;101472.94;5056560;28;20044;-70
2022/04/20 03:04:35;;;;;;;14.75;12.35;;;12.80;99.90;;;13.12;60.57;101463.22;5056520;28;20053;-68
2022/04/20 03:07:04;;;;;;;17.10;11.55;;;12.80;99.90;;;13.11;60.36;101478.28;5056520;28;20055;-68
2022/04/20 03:09:47;;;;;;;19.13;11.65;;;12.80;99.90;;;13.08;60.14;101477.41;5072949;28;20486;-68
2022/04/20 03:12:17;;;;;;;16.77;11.35;;;12.80;99.90;;;13.04;60.49;101479.22;5056221;28;20052;-68
2022/04/20 03:14:54;;;;;;;14.68;11.77;;;12.70;99.90;;;12.96;60.54;101472.13;5056245;28;20652;-69
2022/04/20 03:17:23;;;;;;;15.60;12.02;;;12.70;99.90;;;13.00;60.40;101485.38;5056227;28;20371;-68
2022/04/20 03:19:52;;;;;;;14.32;12.38;;;12.60;99.90;;;13.02;60.57;101475.63;5056205;28;20075;-68
2022/04/20 03:22:21;;;;;;;14.43;11.93;;;12.70;99.90;;;12.97;60.49;101485.38;5073981;28;20119;-68
2022/04/20 03:24:50;;;;;;;14.07;11.97;;;12.60;99.90;;;12.94;60.66;101471.25;5055483;28;20048;-68
2022/04/20 03:27:42;;;;;;;19.92;11.43;;;12.70;99.90;;;12.94;60.48;101481.84;5056053;28;20048;-69
2022/04/20 03:30:14;;;;;;;14.93;11.20;;;12.70;99.90;;;12.97;60.42;101487.19;5056021;28;20509;-69
2022/04/20 03:32:43;;;;;;;17.80;12.25;;;12.60;99.90;;;12.84;60.63;101488.97;5073848;28;20444;-69
2022/04/20 03:35:11;;;;;;;16.88;12.80;;;12.60;99.90;;;12.90;60.71;101496.03;5073794;28;20490;-68
2022/04/20 03:37:40;;;;;;;15.05;11.63;;;12.60;99.90;;;12.90;60.56;101496.94;5073489;28;20056;-68
2022/04/20 03:40:10;;;;;;;15.73;11.60;;;12.60;99.90;;;12.82;60.55;101493.41;5073698;28;20056;-69
2022/04/20 03:42:38;;;;;;;;;;;12.50;99.90;;;12.79;60.47;101488.13;5072946;28;20055;-69
2022/04/20 03:45:08;;;;;;;14.80;11.73;;;12.50;99.90;;;12.74;60.50;101489.03;5073065;28;20366;-68
2022/04/20 03:47:40;;;;;;;13.98;11.73;;;12.40;99.90;;;12.74;60.57;101489.91;5073627;28;20044;-69
2022/04/20 03:50:10;;;;;;;15.23;12.43;;;12.40;99.90;;;12.75;60.30;101486.38;5073366;28;20061;-68
2022/04/20 03:52:39;;;;;;;14.65;11.52;;;12.50;99.90;;;12.55;60.47;101464.31;5055628;28;20101;-68
2022/04/20 03:55:10;;;;;;;19.65;11.18;;;12.40;99.90;;;12.66;60.12;101492.56;5055662;28;20041;-70
2022/04/20 03:57:39;;;;;;;15.32;11.57;;;12.40;99.90;;;12.62;60.34;101495.22;5055634;28;20052;-69
2022/04/20 04:00:10;;;;;;;14.32;11.35;;;12.30;99.90;;;12.61;60.42;101493.47;5073560;28;20127;-69
2022/04/20 04:02:45;;;;;;;14.82;11.45;;;12.30;99.90;;;12.64;60.29;101488.16;5073414;28;20056;-68
2022/04/20 04:05:19;;;;;;;17.23;11.60;;;12.30;99.90;;;12.61;60.33;101494.38;5055324;28;20041;-68
2022/04/20 04:07:52;;;;;;;17.60;11.43;;;12.30;99.90;;;12.65;60.05;101497.91;5055125;28;20138;-69
2022/04/20 04:10:27;;;;;;;13.68;11.07;;;12.30;99.90;;;12.63;59.90;101484.63;5055307;28;20044;-69
2022/04/20 04:12:55;;;;;;;17.70;11.70;;;12.30;99.90;;;12.65;59.82;101489.94;5055780;28;20462;-69
2022/04/20 04:15:25;;;;;;;12.47;10.73;;;12.30;99.90;;;12.59;59.74;101493.50;5055409;28;20398;-69
2022/04/20 04:17:58;;;;;;;12.93;11.13;;;12.30;99.90;;;12.43;60.11;101490.84;5055243;28;20299;-69
2022/04/20 04:20:33;;;;;;;23.58;11.90;;;12.20;99.90;;;12.48;60.02;101491.75;5054893;28;20061;-69
2022/04/20 04:23:01;;;;;;;16.48;10.85;;;12.10;99.90;;;12.22;60.46;101477.63;5055132;28;20091;-70
2022/04/20 04:25:43;;;;;;;16.40;11.40;;;12.00;99.90;;;12.26;60.31;101496.22;5073126;28;20045;-69
2022/04/20 04:28:21;;;;;;;15.75;11.30;;;12.00;99.90;;;12.36;60.21;101503.28;5055149;28;20585;-68
2022/04/20 04:30:50;;;;;;;16.38;11.88;;;12.00;99.90;;;12.22;60.21;101504.16;5055173;28;20049;-69
2022/04/20 04:33:21;;;;;;;13.40;10.80;;;12.00;99.90;;;12.21;60.32;101497.09;5055067;28;20048;-69
2022/04/20 04:35:49;;;;;;;14.50;11.33;;;11.90;99.90;;;11.92;60.40;101462.66;5073102;28;20055;-69
2022/04/20 04:38:18;;;;;;;16.20;12.43;;;11.90;99.90;;;12.19;60.51;101504.19;5058000;28;20045;-69
2022/04/20 04:40:47;;;;;;;14.20;10.85;;;11.90;99.90;;;12.19;60.41;101506.84;5059118;28;20042;-69
2022/04/20 04:43:15;;;;;;;14.40;10.90;;;11.90;99.90;;;12.18;60.08;101500.63;5059034;28;20052;-71
2022/04/20 04:48:42;;;;;;;16.08;11.63;;;12.00;99.90;;;12.02;60.29;101511.25;5059180;28;20052;-69
2022/04/20 04:51:16;;;;;;;13.45;10.95;;;11.70;99.90;;;12.03;59.84;101519.22;5075651;28;20135;-70
2022/04/20 04:53:49;;;;;;;14.07;11.38;;;11.70;99.90;;;12.14;59.93;101527.16;5075788;28;20053;-68
2022/04/20 04:56:28;;;;;;;13.25;11.82;;;11.80;99.90;;;12.12;59.95;101523.59;5058826;28;20045;-70
2022/04/20 04:58:56;;;;;;;17.50;11.73;;;11.80;99.90;;;12.15;60.11;101518.31;5058745;28;20513;-71
2022/04/20 05:01:27;;;;;;;16.88;10.93;;;11.80;99.90;;;12.24;59.91;101527.16;5058654;28;20049;-69
2022/04/20 05:04:00;;;;;;;13.48;11.18;;;11.90;99.90;;;12.31;59.82;101520.09;5058680;28;20499;-70
2022/04/20 05:06:28;;;;;;;16.67;10.70;;;12.00;99.90;;;12.25;59.37;101504.19;5058636;28;20040;-70
2022/04/20 05:09:15;;;;;;;14.68;10.95;;;12.00;99.90;;;12.38;58.99;101524.50;5076557;28;20448;-70
2022/04/20 05:11:45;;;;;;;;;;;12.10;99.90;;;12.02;59.11;101452.94;5075223;28;20051;-71
2022/04/20 05:14:14;;;;;;;14.93;11.18;;;12.20;99.90;;;12.34;58.92;101530.69;5076293;28;19920;-79
2022/04/20 05:16:46;;;;;;;12.88;10.40;;;12.10;99.90;;;12.54;58.53;101540.38;5058343;28;20049;-71
2022/04/20 05:19:18;;;;;;;13.70;10.77;;;12.20;99.90;;;12.62;58.34;101529.75;5058328;28;20102;-71
2022/04/20 05:21:50;;;;;;;13.52;10.77;;;12.30;99.90;;;12.64;58.16;101530.63;5058567;28;20056;-71
2022/04/20 05:24:26;;;;;;;18.17;10.90;;;12.40;99.90;;;12.80;57.92;101550.94;5058622;28;20401;-71
2022/04/20 05:26:55;;;;;;;16.42;10.65;;;12.40;99.90;;;12.85;57.55;101541.22;5057981;28;20135;-71
2022/04/20 05:29:25;;;;;;;14.63;10.60;;;12.50;99.90;;;13.03;57.41;101556.16;5075094;28;20075;-71
2022/04/20 05:32:02;;;;;;;11.23;9.82;;;12.70;99.90;;;13.06;56.72;101540.28;5074750;28;20120;-71
2022/04/20 05:34:34;;;;;;;13.85;10.50;;;12.80;99.90;;;13.09;56.49;101548.22;5058319;28;20060;-71
2022/04/20 05:42:43;;;;;;;14.70;10.32;;;13.00;99.90;;;13.25;55.78;101556.13;5058493;28;20045;-71
2022/04/20 05:45:12;;;;;;;15.45;10.15;;;13.00;99.90;;;13.43;55.39;101558.69;5057432;28;20045;-69
2022/04/20 05:47:45;;;;;;;15.80;10.90;;;13.10;99.90;;;13.58;55.18;101536.47;5056213;28;20076;-70
2022/04/20 05:50:15;;;;;;;17.30;10.43;;;13.40;99.90;;;13.72;54.44;101533.72;5056532;28;20354;-71
2022/04/20 05:52:44;;;;;;;12.82;10.45;;;13.50;99.90;;;13.99;53.99;101552.16;5056558;28;20049;-71
2022/04/20 05:55:13;;;;;;;12.20;10.38;;;13.60;99.90;;;13.93;53.34;101550.44;5056449;28;20456;-71
2022/04/20 05:57:42;;;;;;;11.23;9.60;;;13.60;99.90;;;14.12;53.40;101553.81;5074446;28;20039;-71
2022/04/20 06:00:13;;;;;;;12.93;9.98;;;13.70;99.90;;;14.04;52.83;101553.88;5073978;28;20049;-71
2022/04/20 06:02:44;;;;;;;14.20;10.10;;;13.80;99.90;;;14.13;52.92;101542.31;5074042;28;20059;-71
2022/04/20 06:05:21;;;;;;;10.88;9.00;;;13.80;99.90;;;14.16;52.39;101563.53;5056476;28;20139;-71
2022/04/20 06:08:10;;;;;;;13.80;9.40;;;13.90;99.90;;;14.37;52.54;101566.06;5063185;28;20047;-72
2022/04/20 06:10:57;;;;;;;14.30;9.40;;;14.00;99.90;;;14.64;52.06;101562.25;5056023;28;20047;-71
2022/04/20 06:13:28;;;;;;;11.40;9.07;;;14.20;99.90;;;14.55;51.72;101533.94;5072709;28;20044;-71
2022/04/20 06:16:07;;;;;;;16.23;9.85;;;14.30;99.90;;;14.66;51.47;101564.00;5056400;28;20048;-72
2022/04/20 06:19:08;;;;;;;12.20;10.00;;;14.30;99.90;;;14.67;51.25;101563.13;5018733;28;20059;-71
2022/04/20 06:21:56;;;;;;;11.02;9.63;;;14.30;99.90;;;14.73;51.12;101564.84;5074069;28;20059;-71
2022/04/20 06:24:41;;;;;;;11.43;8.90;;;14.40;99.90;;;14.62;51.45;101556.06;5056040;28;20048;-71
2022/04/20 06:27:30;;;;;;;13.07;8.57;;;14.30;99.90;;;14.89;51.12;101569.09;5059566;28;20063;-72
2022/04/20 06:30:28;;;;;;;10.43;9.18;;;14.50;99.90;;;15.13;50.71;101571.50;5018874;28;20054;-69
2022/04/20 06:32:59;;;;;;;12.55;9.23;;;14.70;99.90;;;15.20;50.04;101571.41;5073606;28;20144;-69
2022/04/20 06:35:46;;;;;;;11.27;8.82;;;14.80;99.90;;;15.10;50.59;101579.50;5073304;28;20146;-69
2022/04/20 06:38:28;;;;;;;14.18;9.30;;;14.80;99.90;;;14.20;51.35;101558.19;5055559;28;20052;-68
2022/04/20 06:41:02;;;;;;;15.07;8.80;;;14.30;99.90;;;14.40;51.68;101566.91;5074006;28;20052;-72
2022/04/20 06:44:00;;;;;;;10.85;9.05;;;14.20;99.90;;;14.16;52.15;101568.88;5055685;28;20048;-70
2022/04/20 06:46:40;;;;;;;12.18;8.52;;;13.90;99.90;;;14.54;50.70;101561.47;5056136;28;130083;-69
2022/04/20 06:49:22;;;;;;;12.02;8.15;;;14.20;99.90;;;14.37;50.32;101579.38;5054827;28;20067;-67
2022/04/20 07:00:27;;;;;;;11.70;8.18;;;13.70;99.90;;;13.67;53.38;101572.75;5055806;28;20048;-71
2022/04/20 07:03:01;;;;;;;14.70;8.18;;;13.40;99.90;;;13.46;52.46;101574.63;5074592;28;20048;-71
2022/04/20 07:05:48;;;;;;;13.15;8.43;;;13.30;99.90;;;12.85;54.06;101570.41;5074347;28;20055;-72
2022/04/20 07:08:29;;;;;;;10.38;7.90;;;12.70;99.90;;;12.77;53.15;101449.19;5056415;28;20140;-71
2022/04/20 07:11:28;;;;;;;9.30;7.63;;;12.90;99.90;;;13.78;50.67;101577.09;5071413;28;20499;-71
2022/04/20 07:13:58;;;;;;;10.35;7.78;;;13.40;99.90;;;13.38;52.21;101587.06;5056029;28;20421;-73
2022/04/20 07:16:27;;;;;;;10.45;8.02;;;13.20;99.90;;;14.20;51.07;101587.47;5056003;28;20090;-72
2022/04/20 07:19:14;;;;;;;11.65;7.85;;;13.70;99.90;;;14.46;49.86;101587.25;5074160;28;20052;-71
2022/04/20 07:22:01;;;;;;;12.90;7.60;;;14.00;99.90;;;13.97;49.80;101585.88;5074030;28;20051;-72
2022/04/20 07:24:43;;;;;;;8.55;7.60;;;13.80;99.90;;;14.07;49.68;101596.41;5073916;28;20055;-72
2022/04/20 07:27:32;;;;;;;12.73;8.65;;;13.70;99.90;;;13.55;51.41;101563.94;5073440;28;20048;-71
2022/04/20 07:30:23;;;;;;;12.55;8.27;;;13.50;99.90;;;13.78;52.08;101590.41;5072457;28;20049;-72
2022/04/20 07:33:16;;;;;;;8.60;7.57;;;13.50;99.90;;;14.34;51.13;101596.22;5073512;28;20056;-71
2022/04/20 07:36:02;;;;;;;11.10;7.85;;;13.90;99.90;;;14.39;51.00;101598.88;5072507;28;20044;-71
2022/04/20 07:38:49;;;;;;;11.05;7.35;;;14.00;99.90;;;14.40;50.90;101590.00;5073754;28;20036;-72
2022/04/20 07:41:38;;;;;;;8.73;7.70;;;14.00;99.90;;;15.13;49.52;101604.38;5073737;28;20058;-71
2022/04/20 07:44:28;;;;;;;13.05;7.90;;;14.60;99.90;;;15.35;47.74;101597.84;5073286;28;20047;-72
2022/04/20 07:47:06;;;;;;;9.30;7.40;;;15.00;99.90;;;15.22;47.04;101608.69;5055369;28;20057;-72
2022/04/20 07:52:53;;;;;;;11.05;8.25;;;14.90;99.90;;;14.80;49.73;101593.16;5055639;28;20469;-71
2022/04/20 07:55:48;;;;;;;10.35;7.82;;;14.50;99.90;;;15.21;47.37;101594.47;5055408;28;20048;-71
2022/04/20 07:58:33;;;;;;;12.98;6.95;;;14.80;99.90;;;15.06;48.77;101594.66;5072156;28;20044;-71
2022/04/20 08:01:26;;;;;;;10.00;7.63;;;14.70;99.90;;;15.12;49.19;101588.38;5035182;28;20139;-72
2022/04/20 08:03:54;;;;;;;9.07;7.32;;;14.70;99.90;;;14.68;47.85;101570.19;5073540;28;20055;-72
2022/04/20 08:06:35;;;;;;;7.43;6.72;;;14.60;99.90;;;15.25;47.67;101596.19;5055226;28;20048;-72
2022/04/20 08:09:05;;;;;;;7.93;7.13;;;14.80;99.90;;;15.19;46.19;101592.75;5055190;28;20379;-72
2022/04/20 08:11:34;;;;;;;8.88;6.78;;;15.00;99.90;;;14.65;48.70;101590.66;5072995;28;20115;-71
2022/04/20 08:14:14;;;;;;;9.60;7.60;;;14.50;99.90;;;14.94;48.16;101593.91;5055296;28;20052;-72
2022/04/20 08:16:48;;;;;;;13.45;6.75;;;14.60;99.90;;;14.68;47.50;101594.16;5073310;28;20048;-74
2022/04/20 08:19:37;;;;;;;13.93;7.32;;;14.50;99.90;;;14.77;50.00;101586.09;5031647;28;20094;-72
2022/04/20 08:22:19;;;;;;;10.90;7.40;;;14.50;99.90;;;15.73;47.77;101591.19;5071785;28;20072;-72
2022/04/20 08:24:47;;;;;;;9.38;7.30;;;15.20;99.90;;;16.22;46.19;101594.88;5072741;28;20053;-72
2022/04/20 08:27:16;;;;;;;9.82;6.90;;;15.70;99.90;;;16.57;44.09;101608.56;5073008;28;20044;-74
2022/04/20 08:29:46;;;;;;;9.80;6.57;;;16.20;99.90;;;16.63;44.41;101597.78;5073067;28;20037;-71
2022/04/20 08:32:17;;;;;;;9.63;6.53;;;16.30;99.90;;;16.00;42.66;101498.28;5072782;28;20405;-72
2022/04/20 08:34:45;;;;;;;11.65;6.60;;;16.50;99.90;;;15.78;46.45;101587.53;5072772;28;20081;-71
2022/04/20 08:37:28;;;;;;;7.75;6.30;;;15.70;99.90;;;16.38;43.37;101591.06;5072983;28;20533;-72
2022/04/20 08:39:56;;;;;;;7.35;6.10;;;16.00;99.90;;;16.85;42.62;101603.63;5072763;28;20044;-72
2022/04/20 08:42:29;;;;;;;7.70;6.60;;;16.40;99.90;;;16.05;45.65;101608.50;5055029;28;20049;-72
2022/04/20 08:45:02;;;;;;;8.95;7.05;;;15.90;99.90;;;16.27;44.95;101601.94;5072735;28;20037;-72
2022/04/20 08:47:36;;;;;;;7.40;6.65;;;15.90;99.90;;;16.95;43.81;101610.56;5073010;28;20045;-72
2022/04/20 08:50:08;;;;;;;8.85;6.72;;;16.50;99.90;;;17.34;42.93;101619.59;5072629;28;20037;-73
2022/04/20 08:52:42;;;;;;;7.38;6.57;;;16.80;99.90;;;17.48;42.77;101612.19;5072948;28;20051;-72
2022/04/20 08:55:13;;;;;;;10.48;6.97;;;17.10;99.90;;;17.66;43.45;101596.66;5054985;28;20131;-73
2022/04/20 08:57:44;;;;;;;;;;;17.40;99.90;;;18.23;42.64;101615.88;5073192;28;20053;-72
2022/04/20 09:00:19;;;;;;;12.23;6.70;;;17.80;99.90;;;18.04;40.79;101623.44;5072889;28;19920;-72
2022/04/20 09:02:52;;;;;;;8.45;7.18;;;17.90;99.90;;;17.68;42.78;101613.56;5072521;28;20498;-72
2022/04/20 09:05:21;;;;;;;12.00;6.90;;;17.50;99.90;;;17.50;41.68;101624.63;5072849;28;20052;-73
2022/04/20 09:07:50;;;;;;;9.18;6.97;;;17.30;99.90;;;16.78;44.26;101605.50;5072596;28;20036;-72
2022/04/20 09:10:19;;;;;;;9.00;6.55;;;16.60;99.90;;;17.39;44.95;101612.34;5072369;28;20044;-72
2022/04/20 09:13:03;;;;;;;7.55;6.50;;;16.80;99.90;;;17.71;42.32;101618.81;5072396;28;20045;-72
2022/04/20 09:15:34;;;;;;;9.38;6.75;;;17.20;99.90;;;17.74;41.42;101617.88;5072461;28;20068;-73
2022/04/20 09:18:05;;;;;;;7.70;6.60;;;17.50;99.90;;;16.05;42.14;101327.38;5072866;28;20551;-72
2022/04/20 09:20:35;;;;;;;8.20;6.32;;;17.40;99.90;;;17.56;39.96;101612.91;5054472;28;20486;-72
2022/04/20 09:23:07;;;;;;;7.45;6.47;;;17.30;99.90;;;16.48;41.76;101599.78;5073443;28;20050;-72
2022/04/20 09:25:47;;;;;;;13.20;7.05;;;16.60;99.90;;;16.12;44.19;101609.28;5076249;28;20045;-73
2022/04/20 09:28:15;;;;;;;10.48;7.38;;;16.00;99.90;;;16.80;46.30;101606.38;5076382;28;20037;-72
2022/04/20 09:30:44;;;;;;;11.55;7.18;;;16.30;99.90;;;17.54;45.28;101609.41;5076160;28;20222;-72
2022/04/20 09:33:15;;;;;;;9.88;6.80;;;16.90;99.90;;;17.51;42.17;101606.78;5075720;28;20102;-72
2022/04/20 09:35:46;;;;;;;7.63;6.70;;;17.30;99.90;;;17.46;43.27;101606.84;5058334;28;20410;-72
2022/04/20 09:38:19;;;;;;;9.57;7.80;;;17.10;99.90;;;17.93;41.88;101584.44;5058100;28;20048;-72
2022/04/20 09:41:07;;;;;;;8.30;7.38;;;17.60;99.90;;;18.30;41.06;101571.94;5076008;28;20609;-74
2022/04/20 09:43:35;;;;;;;11.55;6.90;;;18.10;99.90;;;18.12;41.41;101596.47;5075736;28;20116;-72
2022/04/20 09:48:50;;;;;;;10.00;6.93;;;18.00;99.90;;;18.40;40.55;101575.25;5075595;28;20106;-72
2022/04/20 09:49:06;;;;;;;10.82;7.13;;;18.10;99.90;;;18.75;39.65;101588.66;5075797;28;20053;-72
2022/04/20 09:51:38;;;;;;;9.52;7.35;;;18.50;99.90;;;18.31;42.32;101584.41;5075456;28;20127;-73
2022/04/20 09:54:26;;;;;;;9.98;6.85;;;18.30;99.90;;;19.03;40.27;101597.72;5075581;28;20113;-72
2022/04/20 09:57:10;;;;;;;10.68;7.30;;;18.60;99.90;;;19.44;39.32;101596.59;5075510;28;20037;-72
2022/04/20 09:59:40;;;;;;;8.98;6.50;;;19.00;99.90;;;18.72;38.92;101584.25;5075669;28;20059;-72
2022/04/20 10:02:29;;;;;;;11.82;6.10;;;18.70;99.90;;;18.80;38.62;101587.63;5075466;28;20163;-72
2022/04/20 10:05:00;;;;;;;5.78;5.03;;;18.60;99.90;;;18.00;39.99;101592.28;5075355;28;20036;-72
2022/04/20 10:07:28;;;;;;;6.35;5.75;;;18.10;99.90;;;16.54;40.48;101459.06;5075046;28;20048;-73
2022/04/20 10:09:57;;;;;;;8.38;6.80;;;17.20;99.90;;;17.51;43.01;101597.00;5074909;28;20153;-73
2022/04/20 10:12:26;;;;;;;6.10;5.50;;;17.10;99.90;;;18.26;41.18;101589.00;5075284;28;20063;-72
2022/04/20 10:17:45;;;;;;;8.85;5.65;;;18.30;99.90;;;18.83;39.91;101582.16;5057438;28;20052;-72
2022/04/20 10:20:15;;;;;;;10.00;5.78;;;18.50;99.90;;;18.25;40.00;101557.78;5075281;28;20480;-71
2022/04/20 10:22:45;;;;;;;6.85;5.20;;;18.30;99.90;;;18.84;39.65;101577.69;5074972;28;20123;-72
2022/04/20 10:25:14;;;;;;;11.27;5.60;;;18.40;99.90;;;19.11;38.97;101557.28;5074920;28;20063;-72
2022/04/20 10:28:09;;;;;;;5.72;5.03;;;18.80;99.90;;;17.95;38.17;101531.75;5075585;28;20074;-72
2022/04/20 10:30:58;;;;;;;6.25;4.80;;;18.20;99.90;;;18.44;38.53;101564.47;5074986;28;20049;-72
2022/04/20 10:33:31;;;;;;;6.10;5.43;;;18.10;99.90;;;18.31;38.80;101568.31;5056773;28;20053;-73
2022/04/20 10:36:17;;;;;;;8.48;5.93;;;18.10;99.90;;;18.78;39.12;101572.50;5056044;28;20076;-72
2022/04/20 10:39:22;;;;;;;8.45;5.25;;;18.40;99.90;;;19.26;37.78;101564.91;5074861;28;20071;-72
2022/04/20 10:42:23;;;;;;;5.93;5.20;;;18.80;99.90;;;19.17;37.79;101563.34;5056904;28;20049;-72
2022/04/20 10:45:01;;;;;;;8.63;5.35;;;18.80;99.90;;;19.50;37.41;101554.34;5074779;28;20140;-72
2022/04/20 10:47:32;;;;;;;7.00;5.45;;;19.10;99.90;;;19.44;36.66;101548.28;5074351;28;20411;-72
2022/04/20 10:50:20;;;;;;;7.60;5.57;;;19.20;99.90;;;19.62;36.20;101545.94;5074208;28;20119;-72
2022/04/20 10:52:58;;;;;;;5.97;5.00;;;19.30;99.90;;;18.46;36.05;101355.44;5073597;28;20064;-72
2022/04/20 10:55:55;;;;;;;6.45;5.30;;;19.40;99.90;;;19.81;36.27;101543.56;5073473;28;20471;-73
2022/04/20 10:58:24;;;;;;;6.25;5.13;;;19.50;99.90;;;19.34;36.89;101547.69;5071993;28;20130;-72
2022/04/20 11:01:12;;;;;;;7.93;5.57;;;19.20;99.90;;;19.63;36.81;101553.06;5074073;28;20036;-72
2022/04/20 11:04:05;;;;;;;5.38;4.88;;;19.30;99.90;;;19.84;36.31;101548.81;5074318;28;20052;-72
2022/04/20 11:07:19;;;;;;;6.93;4.90;;;19.50;99.90;;;19.66;36.95;101538.66;5073945;28;20075;-73